sensor_id;sensor_type;location;lat;lon;timestamp;P1;durP1;ratioP1;P2;durP2;ratioP2
8909;SDS011;4490;49.072;8.804;2022-08-19T00:01:52;15.40;;;13.02;;
8909;SDS011;4490;49.072;8.804;2022-08-19T00:04:22;18.38;;;14.70;;
8909;SDS011;4490;49.072;8.804;2022-08-19T00:06:50;17.25;;;14.27;;
8909;SDS011;4490;49.072;8.804;2022-08-19T00:09:17;16.35;;;14.70;;
8909;SDS011;4490;49.072;8.804;2022-08-19T00:11:44;17.33;;;14.35;;
8909;SDS011;4490;49.072;8.804;2022-08-19T00:14:11;16.30;;;14.57;;
8909;SDS011;4490;49.072;8.804;2022-08-19T00:16:39;15.38;;;13.50;;
8909;SDS011;4490;49.072;8.804;2022-08-19T00:19:06;18.02;;;14.18;;
8909;SDS011;4490;49.072;8.804;2022-08-19T00:21:32;17.55;;;14.43;;
8909;SDS011;4490;49.072;8.804;2022-08-19T00:24:01;17.80;;;14.57;;
8909;SDS011;4490;49.072;8.804;2022-08-19T00:26:27;18.80;;;15.10;;
8909;SDS011;4490;49.072;8.804;2022-08-19T00:28:54;17.98;;;14.93;;
8909;SDS011;4490;49.072;8.804;2022-08-19T00:31:20;17.48;;;14.77;;
8909;SDS011;4490;49.072;8.804;2022-08-19T00:33:46;17.08;;;14.75;;
8909;SDS011;4490;49.072;8.804;2022-08-19T00:36:15;15.48;;;13.88;;
8909;SDS011;4490;49.072;8.804;2022-08-19T00:38:42;17.33;;;14.35;;
8909;SDS011;4490;49.072;8.804;2022-08-19T00:41:09;18.83;;;15.15;;
8909;SDS011;4490;49.072;8.804;2022-08-19T00:43:55;17.83;;;14.90;;
8909;SDS011;4490;49.072;8.804;2022-08-19T00:46:30;15.80;;;14.18;;
8909;SDS011;4490;49.072;8.804;2022-08-19T00:48:58;18.65;;;14.65;;
8909;SDS011;4490;49.072;8.804;2022-08-19T00:51:27;15.98;;;14.27;;
8909;SDS011;4490;49.072;8.804;2022-08-19T00:53:57;16.00;;;14.30;;
8909;SDS011;4490;49.072;8.804;2022-08-19T00:56:27;17.58;;;14.65;;
8909;SDS011;4490;49.072;8.804;2022-08-19T00:58:53;16.02;;;14.07;;
8909;SDS011;4490;49.072;8.804;2022-08-19T01:01:21;16.00;;;14.30;;
8909;SDS011;4490;49.072;8.804;2022-08-19T01:03:47;18.65;;;14.60;;
8909;SDS011;4490;49.072;8.804;2022-08-19T01:06:12;17.45;;;15.07;;
8909;SDS011;4490;49.072;8.804;2022-08-19T01:08:39;17.25;;;15.43;;
8909;SDS011;4490;49.072;8.804;2022-08-19T01:11:05;17.90;;;15.73;;
8909;SDS011;4490;49.072;8.804;2022-08-19T01:13:32;18.20;;;16.30;;
8909;SDS011;4490;49.072;8.804;2022-08-19T01:16:00;20.58;;;16.67;;
8909;SDS011;4490;49.072;8.804;2022-08-19T01:18:31;18.20;;;16.08;;
8909;SDS011;4490;49.072;8.804;2022-08-19T01:21:02;20.92;;;17.40;;
8909;SDS011;4490;49.072;8.804;2022-08-19T01:23:34;19.10;;;16.20;;
8909;SDS011;4490;49.072;8.804;2022-08-19T01:26:12;19.80;;;16.88;;
8909;SDS011;4490;49.072;8.804;2022-08-19T01:28:41;21.17;;;17.10;;
8909;SDS011;4490;49.072;8.804;2022-08-19T01:31:10;20.42;;;17.42;;
8909;SDS011;4490;49.072;8.804;2022-08-19T01:33:42;19.67;;;17.30;;
8909;SDS011;4490;49.072;8.804;2022-08-19T01:36:10;18.65;;;16.35;;
8909;SDS011;4490;49.072;8.804;2022-08-19T01:38:41;19.15;;;17.10;;
8909;SDS011;4490;49.072;8.804;2022-08-19T01:41:09;20.48;;;17.10;;
8909;SDS011;4490;49.072;8.804;2022-08-19T01:43:38;21.02;;;17.70;;
8909;SDS011;4490;49.072;8.804;2022-08-19T01:46:04;20.20;;;17.58;;
8909;SDS011;4490;49.072;8.804;2022-08-19T01:48:36;20.38;;;17.60;;
8909;SDS011;4490;49.072;8.804;2022-08-19T01:51:04;20.70;;;17.85;;
8909;SDS011;4490;49.072;8.804;2022-08-19T01:53:31;21.00;;;18.80;;
8909;SDS011;4490;49.072;8.804;2022-08-19T01:55:57;22.92;;;20.17;;
8909;SDS011;4490;49.072;8.804;2022-08-19T01:58:24;22.00;;;19.35;;
8909;SDS011;4490;49.072;8.804;2022-08-19T02:00:57;22.02;;;19.25;;
8909;SDS011;4490;49.072;8.804;2022-08-19T02:03:23;20.90;;;18.58;;
8909;SDS011;4490;49.072;8.804;2022-08-19T02:05:53;21.33;;;18.73;;
8909;SDS011;4490;49.072;8.804;2022-08-19T02:08:24;22.02;;;18.42;;
8909;SDS011;4490;49.072;8.804;2022-08-19T02:10:51;25.33;;;20.08;;
8909;SDS011;4490;49.072;8.804;2022-08-19T02:13:17;26.63;;;21.05;;
8909;SDS011;4490;49.072;8.804;2022-08-19T02:15:43;24.58;;;19.38;;
8909;SDS011;4490;49.072;8.804;2022-08-19T02:18:08;21.65;;;19.45;;
8909;SDS011;4490;49.072;8.804;2022-08-19T02:20:34;22.27;;;19.55;;
8909;SDS011;4490;49.072;8.804;2022-08-19T02:23:01;23.15;;;19.95;;
8909;SDS011;4490;49.072;8.804;2022-08-19T02:25:26;22.90;;;20.40;;
8909;SDS011;4490;49.072;8.804;2022-08-19T02:27:52;21.45;;;19.35;;
8909;SDS011;4490;49.072;8.804;2022-08-19T02:30:19;22.77;;;20.38;;
8909;SDS011;4490;49.072;8.804;2022-08-19T02:32:46;24.92;;;21.50;;
8909;SDS011;4490;49.072;8.804;2022-08-19T02:35:14;23.23;;;20.75;;
8909;SDS011;4490;49.072;8.804;2022-08-19T02:37:40;26.08;;;22.70;;
8909;SDS011;4490;49.072;8.804;2022-08-19T02:40:26;24.42;;;21.23;;
8909;SDS011;4490;49.072;8.804;2022-08-19T02:42:52;26.75;;;21.67;;
8909;SDS011;4490;49.072;8.804;2022-08-19T02:45:18;23.67;;;21.17;;
8909;SDS011;4490;49.072;8.804;2022-08-19T02:47:43;23.63;;;21.15;;
8909;SDS011;4490;49.072;8.804;2022-08-19T02:50:09;25.58;;;21.92;;
8909;SDS011;4490;49.072;8.804;2022-08-19T02:52:35;23.67;;;20.80;;
8909;SDS011;4490;49.072;8.804;2022-08-19T02:55:01;24.33;;;21.60;;
8909;SDS011;4490;49.072;8.804;2022-08-19T02:57:27;24.95;;;22.35;;
8909;SDS011;4490;49.072;8.804;2022-08-19T02:59:56;24.30;;;21.70;;
8909;SDS011;4490;49.072;8.804;2022-08-19T03:02:22;24.05;;;20.77;;
8909;SDS011;4490;49.072;8.804;2022-08-19T03:04:48;25.60;;;21.33;;
8909;SDS011;4490;49.072;8.804;2022-08-19T03:07:15;24.60;;;21.00;;
8909;SDS011;4490;49.072;8.804;2022-08-19T03:09:41;26.13;;;23.33;;
8909;SDS011;4490;49.072;8.804;2022-08-19T03:12:09;27.17;;;22.95;;
8909;SDS011;4490;49.072;8.804;2022-08-19T03:14:35;25.58;;;21.88;;
8909;SDS011;4490;49.072;8.804;2022-08-19T03:17:01;24.58;;;21.98;;
8909;SDS011;4490;49.072;8.804;2022-08-19T03:19:29;22.50;;;20.02;;
8909;SDS011;4490;49.072;8.804;2022-08-19T03:21:55;23.85;;;21.40;;
8909;SDS011;4490;49.072;8.804;2022-08-19T03:24:20;27.20;;;22.25;;
8909;SDS011;4490;49.072;8.804;2022-08-19T03:26:47;22.52;;;20.13;;
8909;SDS011;4490;49.072;8.804;2022-08-19T03:29:16;24.10;;;20.45;;
8909;SDS011;4490;49.072;8.804;2022-08-19T03:31:43;22.00;;;19.70;;
8909;SDS011;4490;49.072;8.804;2022-08-19T03:34:10;23.85;;;20.85;;
8909;SDS011;4490;49.072;8.804;2022-08-19T03:36:38;21.30;;;19.05;;
8909;SDS011;4490;49.072;8.804;2022-08-19T03:39:04;21.45;;;19.10;;
8909;SDS011;4490;49.072;8.804;2022-08-19T03:41:31;22.23;;;19.83;;
8909;SDS011;4490;49.072;8.804;2022-08-19T03:44:01;21.80;;;19.42;;
8909;SDS011;4490;49.072;8.804;2022-08-19T03:46:30;22.20;;;19.83;;
8909;SDS011;4490;49.072;8.804;2022-08-19T03:48:57;23.55;;;21.10;;
8909;SDS011;4490;49.072;8.804;2022-08-19T03:51:29;25.10;;;19.98;;
8909;SDS011;4490;49.072;8.804;2022-08-19T03:53:58;23.10;;;20.60;;
8909;SDS011;4490;49.072;8.804;2022-08-19T03:56:25;23.65;;;21.13;;
8909;SDS011;4490;49.072;8.804;2022-08-19T03:58:53;24.52;;;21.92;;
8909;SDS011;4490;49.072;8.804;2022-08-19T04:01:20;22.85;;;20.50;;
8909;SDS011;4490;49.072;8.804;2022-08-19T04:03:47;24.27;;;21.67;;
8909;SDS011;4490;49.072;8.804;2022-08-19T04:06:18;24.67;;;20.40;;
8909;SDS011;4490;49.072;8.804;2022-08-19T04:08:46;22.52;;;20.23;;
8909;SDS011;4490;49.072;8.804;2022-08-19T04:11:14;24.85;;;22.17;;
8909;SDS011;4490;49.072;8.804;2022-08-19T04:13:43;23.13;;;20.60;;
8909;SDS011;4490;49.072;8.804;2022-08-19T04:16:09;26.15;;;23.35;;
8909;SDS011;4490;49.072;8.804;2022-08-19T04:18:36;22.80;;;20.40;;
8909;SDS011;4490;49.072;8.804;2022-08-19T04:21:04;21.77;;;19.48;;
8909;SDS011;4490;49.072;8.804;2022-08-19T04:23:31;22.95;;;20.55;;
8909;SDS011;4490;49.072;8.804;2022-08-19T04:25:58;23.98;;;21.48;;
8909;SDS011;4490;49.072;8.804;2022-08-19T04:28:24;27.13;;;21.20;;
8909;SDS011;4490;49.072;8.804;2022-08-19T04:30:50;24.45;;;21.80;;
8909;SDS011;4490;49.072;8.804;2022-08-19T04:33:19;23.35;;;20.27;;
8909;SDS011;4490;49.072;8.804;2022-08-19T04:35:51;23.98;;;20.73;;
8909;SDS011;4490;49.072;8.804;2022-08-19T04:38:18;26.40;;;23.45;;
8909;SDS011;4490;49.072;8.804;2022-08-19T04:40:48;25.98;;;22.88;;
8909;SDS011;4490;49.072;8.804;2022-08-19T04:43:33;29.00;;;24.30;;
8909;SDS011;4490;49.072;8.804;2022-08-19T04:46:04;26.45;;;23.42;;
8909;SDS011;4490;49.072;8.804;2022-08-19T04:48:35;25.90;;;22.88;;
8909;SDS011;4490;49.072;8.804;2022-08-19T04:51:05;28.27;;;23.95;;
8909;SDS011;4490;49.072;8.804;2022-08-19T04:53:33;26.20;;;23.38;;
8909;SDS011;4490;49.072;8.804;2022-08-19T04:56:03;27.25;;;24.40;;
8909;SDS011;4490;49.072;8.804;2022-08-19T04:58:32;25.50;;;22.85;;
8909;SDS011;4490;49.072;8.804;2022-08-19T05:00:58;28.38;;;24.15;;
8909;SDS011;4490;49.072;8.804;2022-08-19T05:03:24;27.38;;;24.00;;
8909;SDS011;4490;49.072;8.804;2022-08-19T05:05:50;28.75;;;23.63;;
8909;SDS011;4490;49.072;8.804;2022-08-19T05:08:17;26.42;;;22.88;;
8909;SDS011;4490;49.072;8.804;2022-08-19T05:10:49;26.25;;;22.42;;
8909;SDS011;4490;49.072;8.804;2022-08-19T05:13:16;27.13;;;24.23;;
8909;SDS011;4490;49.072;8.804;2022-08-19T05:15:44;25.48;;;22.77;;
8909;SDS011;4490;49.072;8.804;2022-08-19T05:18:18;27.40;;;23.20;;
8909;SDS011;4490;49.072;8.804;2022-08-19T05:21:06;25.83;;;22.90;;
8909;SDS011;4490;49.072;8.804;2022-08-19T05:23:52;26.60;;;23.80;;
8909;SDS011;4490;49.072;8.804;2022-08-19T05:26:18;25.00;;;22.30;;
8909;SDS011;4490;49.072;8.804;2022-08-19T05:28:43;25.27;;;21.45;;
8909;SDS011;4490;49.072;8.804;2022-08-19T05:31:09;27.98;;;22.42;;
8909;SDS011;4490;49.072;8.804;2022-08-19T05:33:35;24.45;;;21.88;;
8909;SDS011;4490;49.072;8.804;2022-08-19T05:36:01;24.85;;;22.30;;
8909;SDS011;4490;49.072;8.804;2022-08-19T05:38:27;26.38;;;22.52;;
8909;SDS011;4490;49.072;8.804;2022-08-19T05:40:53;24.83;;;22.27;;
8909;SDS011;4490;49.072;8.804;2022-08-19T05:43:19;24.10;;;21.58;;
8909;SDS011;4490;49.072;8.804;2022-08-19T05:45:44;24.13;;;21.63;;
8909;SDS011;4490;49.072;8.804;2022-08-19T05:48:10;24.75;;;21.95;;
8909;SDS011;4490;49.072;8.804;2022-08-19T05:50:36;24.42;;;21.52;;
8909;SDS011;4490;49.072;8.804;2022-08-19T05:53:07;26.35;;;21.65;;
8909;SDS011;4490;49.072;8.804;2022-08-19T05:55:34;23.17;;;20.80;;
8909;SDS011;4490;49.072;8.804;2022-08-19T05:58:03;23.63;;;20.98;;
8909;SDS011;4490;49.072;8.804;2022-08-19T06:00:32;25.23;;;21.52;;
8909;SDS011;4490;49.072;8.804;2022-08-19T06:02:58;24.08;;;21.02;;
8909;SDS011;4490;49.072;8.804;2022-08-19T06:05:28;21.27;;;19.00;;
8909;SDS011;4490;49.072;8.804;2022-08-19T06:07:56;22.88;;;20.52;;
8909;SDS011;4490;49.072;8.804;2022-08-19T06:10:24;25.42;;;20.20;;
8909;SDS011;4490;49.072;8.804;2022-08-19T06:12:51;23.00;;;20.60;;
8909;SDS011;4490;49.072;8.804;2022-08-19T06:15:17;22.92;;;20.63;;
8909;SDS011;4490;49.072;8.804;2022-08-19T06:17:43;23.27;;;20.67;;
8909;SDS011;4490;49.072;8.804;2022-08-19T06:20:13;21.63;;;19.33;;
8909;SDS011;4490;49.072;8.804;2022-08-19T06:22:44;23.20;;;20.75;;
8909;SDS011;4490;49.072;8.804;2022-08-19T06:25:12;21.73;;;19.38;;
8909;SDS011;4490;49.072;8.804;2022-08-19T06:27:39;22.52;;;20.15;;
8909;SDS011;4490;49.072;8.804;2022-08-19T06:30:06;23.98;;;20.95;;
8909;SDS011;4490;49.072;8.804;2022-08-19T06:32:32;25.35;;;21.30;;
8909;SDS011;4490;49.072;8.804;2022-08-19T06:34:58;23.17;;;19.67;;
8909;SDS011;4490;49.072;8.804;2022-08-19T06:37:23;23.08;;;20.77;;
8909;SDS011;4490;49.072;8.804;2022-08-19T06:39:49;21.73;;;19.55;;
8909;SDS011;4490;49.072;8.804;2022-08-19T06:42:16;24.42;;;19.52;;
8909;SDS011;4490;49.072;8.804;2022-08-19T06:44:43;22.15;;;19.55;;
8909;SDS011;4490;49.072;8.804;2022-08-19T06:47:13;22.23;;;19.80;;
8909;SDS011;4490;49.072;8.804;2022-08-19T06:49:41;22.30;;;19.38;;
8909;SDS011;4490;49.072;8.804;2022-08-19T06:52:07;21.67;;;19.40;;
8909;SDS011;4490;49.072;8.804;2022-08-19T06:54:37;23.27;;;18.88;;
8909;SDS011;4490;49.072;8.804;2022-08-19T06:57:04;20.20;;;18.08;;
8909;SDS011;4490;49.072;8.804;2022-08-19T06:59:30;20.10;;;17.88;;
8909;SDS011;4490;49.072;8.804;2022-08-19T07:01:58;20.83;;;18.83;;
8909;SDS011;4490;49.072;8.804;2022-08-19T07:04:27;23.63;;;19.17;;
8909;SDS011;4490;49.072;8.804;2022-08-19T07:07:00;23.25;;;19.52;;
8909;SDS011;4490;49.072;8.804;2022-08-19T07:09:28;21.38;;;19.02;;
8909;SDS011;4490;49.072;8.804;2022-08-19T07:11:54;20.55;;;18.23;;
8909;SDS011;4490;49.072;8.804;2022-08-19T07:14:22;20.63;;;18.48;;
8909;SDS011;4490;49.072;8.804;2022-08-19T07:16:50;19.67;;;17.63;;
8909;SDS011;4490;49.072;8.804;2022-08-19T07:19:17;20.45;;;18.45;;
8909;SDS011;4490;49.072;8.804;2022-08-19T07:21:44;19.70;;;17.77;;
8909;SDS011;4490;49.072;8.804;2022-08-19T07:24:12;20.52;;;18.27;;
8909;SDS011;4490;49.072;8.804;2022-08-19T07:26:38;19.75;;;17.63;;
8909;SDS011;4490;49.072;8.804;2022-08-19T07:29:06;22.88;;;18.65;;
8909;SDS011;4490;49.072;8.804;2022-08-19T07:31:32;20.17;;;17.35;;
8909;SDS011;4490;49.072;8.804;2022-08-19T07:34:02;20.23;;;17.75;;
8909;SDS011;4490;49.072;8.804;2022-08-19T07:36:33;21.85;;;18.35;;
8909;SDS011;4490;49.072;8.804;2022-08-19T07:39:07;20.23;;;18.30;;
8909;SDS011;4490;49.072;8.804;2022-08-19T07:41:35;19.95;;;17.10;;
8909;SDS011;4490;49.072;8.804;2022-08-19T07:44:03;19.05;;;17.05;;
8909;SDS011;4490;49.072;8.804;2022-08-19T07:46:30;18.88;;;16.65;;
8909;SDS011;4490;49.072;8.804;2022-08-19T07:48:57;18.13;;;16.23;;
8909;SDS011;4490;49.072;8.804;2022-08-19T07:51:22;18.15;;;15.65;;
8909;SDS011;4490;49.072;8.804;2022-08-19T07:53:48;20.70;;;15.63;;
8909;SDS011;4490;49.072;8.804;2022-08-19T07:56:16;18.38;;;15.60;;
8909;SDS011;4490;49.072;8.804;2022-08-19T07:58:43;16.15;;;14.55;;
8909;SDS011;4490;49.072;8.804;2022-08-19T08:01:12;18.20;;;16.38;;
8909;SDS011;4490;49.072;8.804;2022-08-19T08:03:40;16.42;;;14.80;;
8909;SDS011;4490;49.072;8.804;2022-08-19T08:06:25;17.08;;;15.35;;
8909;SDS011;4490;49.072;8.804;2022-08-19T08:09:09;16.63;;;14.93;;
8909;SDS011;4490;49.072;8.804;2022-08-19T08:11:45;17.48;;;15.63;;
8909;SDS011;4490;49.072;8.804;2022-08-19T08:14:24;15.38;;;13.93;;
8909;SDS011;4490;49.072;8.804;2022-08-19T08:17:01;14.65;;;13.15;;
8909;SDS011;4490;49.072;8.804;2022-08-19T08:19:28;18.52;;;15.20;;
8909;SDS011;4490;49.072;8.804;2022-08-19T08:21:55;15.95;;;14.32;;
8909;SDS011;4490;49.072;8.804;2022-08-19T08:24:23;16.17;;;14.57;;
8909;SDS011;4490;49.072;8.804;2022-08-19T08:26:53;15.82;;;13.10;;
8909;SDS011;4490;49.072;8.804;2022-08-19T08:29:19;15.18;;;13.43;;
8909;SDS011;4490;49.072;8.804;2022-08-19T08:31:45;14.93;;;13.43;;
8909;SDS011;4490;49.072;8.804;2022-08-19T08:34:11;15.40;;;12.82;;
8909;SDS011;4490;49.072;8.804;2022-08-19T08:36:42;15.07;;;12.85;;
8909;SDS011;4490;49.072;8.804;2022-08-19T08:39:11;15.60;;;14.00;;
8909;SDS011;4490;49.072;8.804;2022-08-19T08:41:41;15.23;;;12.77;;
8909;SDS011;4490;49.072;8.804;2022-08-19T08:44:20;14.30;;;12.88;;
8909;SDS011;4490;49.072;8.804;2022-08-19T08:47:02;12.60;;;11.40;;
8909;SDS011;4490;49.072;8.804;2022-08-19T08:52:31;15.40;;;11.73;;
8909;SDS011;4490;49.072;8.804;2022-08-19T08:55:03;13.80;;;10.70;;
8909;SDS011;4490;49.072;8.804;2022-08-19T09:00:14;12.32;;;10.30;;
8909;SDS011;4490;49.072;8.804;2022-08-19T09:02:42;16.42;;;10.45;;
8909;SDS011;4490;49.072;8.804;2022-08-19T09:05:09;11.75;;;10.52;;
8909;SDS011;4490;49.072;8.804;2022-08-19T09:10:16;11.80;;;10.60;;
8909;SDS011;4490;49.072;8.804;2022-08-19T09:15:48;11.60;;;10.40;;
8909;SDS011;4490;49.072;8.804;2022-08-19T09:18:20;13.02;;;9.40;;
8909;SDS011;4490;49.072;8.804;2022-08-19T09:20:45;10.32;;;9.23;;
8909;SDS011;4490;49.072;8.804;2022-08-19T09:23:14;10.40;;;9.32;;
8909;SDS011;4490;49.072;8.804;2022-08-19T09:25:40;11.07;;;9.82;;
8909;SDS011;4490;49.072;8.804;2022-08-19T09:28:06;10.55;;;9.55;;
8909;SDS011;4490;49.072;8.804;2022-08-19T09:30:34;12.57;;;9.15;;
8909;SDS011;4490;49.072;8.804;2022-08-19T09:33:04;9.80;;;8.82;;
8909;SDS011;4490;49.072;8.804;2022-08-19T09:35:31;10.57;;;9.45;;
8909;SDS011;4490;49.072;8.804;2022-08-19T09:37:57;11.40;;;9.98;;
8909;SDS011;4490;49.072;8.804;2022-08-19T09:40:24;10.90;;;9.50;;
8909;SDS011;4490;49.072;8.804;2022-08-19T09:42:51;10.35;;;8.63;;
8909;SDS011;4490;49.072;8.804;2022-08-19T09:45:17;10.27;;;8.32;;
8909;SDS011;4490;49.072;8.804;2022-08-19T09:47:46;11.32;;;9.25;;
8909;SDS011;4490;49.072;8.804;2022-08-19T09:50:13;9.25;;;8.35;;
8909;SDS011;4490;49.072;8.804;2022-08-19T09:52:39;11.15;;;9.18;;
8909;SDS011;4490;49.072;8.804;2022-08-19T09:55:07;11.07;;;8.57;;
8909;SDS011;4490;49.072;8.804;2022-08-19T09:57:34;9.80;;;7.90;;
8909;SDS011;4490;49.072;8.804;2022-08-19T10:00:01;9.60;;;8.60;;
8909;SDS011;4490;49.072;8.804;2022-08-19T10:02:28;9.15;;;7.93;;
8909;SDS011;4490;49.072;8.804;2022-08-19T10:04:54;8.70;;;7.88;;
8909;SDS011;4490;49.072;8.804;2022-08-19T10:07:38;7.60;;;6.82;;
8909;SDS011;4490;49.072;8.804;2022-08-19T10:10:04;8.60;;;7.43;;
8909;SDS011;4490;49.072;8.804;2022-08-19T10:12:31;9.50;;;7.53;;
8909;SDS011;4490;49.072;8.804;2022-08-19T10:14:58;9.32;;;7.47;;
8909;SDS011;4490;49.072;8.804;2022-08-19T10:17:24;7.15;;;6.28;;
8909;SDS011;4490;49.072;8.804;2022-08-19T10:19:50;6.30;;;5.70;;
8909;SDS011;4490;49.072;8.804;2022-08-19T10:22:17;6.75;;;4.95;;
8909;SDS011;4490;49.072;8.804;2022-08-19T10:24:43;5.45;;;4.95;;
8909;SDS011;4490;49.072;8.804;2022-08-19T10:27:10;5.00;;;4.57;;
8909;SDS011;4490;49.072;8.804;2022-08-19T10:29:37;6.07;;;5.05;;
8909;SDS011;4490;49.072;8.804;2022-08-19T10:32:04;5.75;;;5.20;;
8909;SDS011;4490;49.072;8.804;2022-08-19T10:34:32;8.13;;;5.65;;
8909;SDS011;4490;49.072;8.804;2022-08-19T10:36:58;7.47;;;5.22;;
8909;SDS011;4490;49.072;8.804;2022-08-19T10:39:25;7.00;;;5.25;;
8909;SDS011;4490;49.072;8.804;2022-08-19T10:41:53;7.43;;;5.95;;
8909;SDS011;4490;49.072;8.804;2022-08-19T10:44:20;6.68;;;5.32;;
8909;SDS011;4490;49.072;8.804;2022-08-19T10:46:48;8.05;;;5.78;;
8909;SDS011;4490;49.072;8.804;2022-08-19T10:49:14;6.75;;;6.03;;
8909;SDS011;4490;49.072;8.804;2022-08-19T10:51:39;6.97;;;5.88;;
8909;SDS011;4490;49.072;8.804;2022-08-19T10:54:24;7.20;;;6.05;;
8909;SDS011;4490;49.072;8.804;2022-08-19T10:57:10;6.03;;;5.47;;
8909;SDS011;4490;49.072;8.804;2022-08-19T10:59:36;8.50;;;6.53;;
8909;SDS011;4490;49.072;8.804;2022-08-19T11:02:03;9.93;;;6.05;;
8909;SDS011;4490;49.072;8.804;2022-08-19T11:04:30;6.80;;;5.57;;
8909;SDS011;4490;49.072;8.804;2022-08-19T11:06:57;6.70;;;6.10;;
8909;SDS011;4490;49.072;8.804;2022-08-19T11:09:24;6.35;;;5.72;;
8909;SDS011;4490;49.072;8.804;2022-08-19T11:11:51;8.95;;;5.55;;
8909;SDS011;4490;49.072;8.804;2022-08-19T11:14:18;8.32;;;5.80;;
8909;SDS011;4490;49.072;8.804;2022-08-19T11:16:45;7.45;;;5.68;;
8909;SDS011;4490;49.072;8.804;2022-08-19T11:19:13;9.00;;;5.70;;
8909;SDS011;4490;49.072;8.804;2022-08-19T11:21:42;5.97;;;5.50;;
8909;SDS011;4490;49.072;8.804;2022-08-19T11:24:10;5.88;;;4.95;;
8909;SDS011;4490;49.072;8.804;2022-08-19T11:26:39;5.53;;;5.03;;
8909;SDS011;4490;49.072;8.804;2022-08-19T11:29:05;5.22;;;4.72;;
8909;SDS011;4490;49.072;8.804;2022-08-19T11:31:36;5.53;;;4.90;;
8909;SDS011;4490;49.072;8.804;2022-08-19T11:34:05;5.13;;;4.72;;
8909;SDS011;4490;49.072;8.804;2022-08-19T11:36:33;6.18;;;5.63;;
8909;SDS011;4490;49.072;8.804;2022-08-19T11:39:02;6.32;;;5.80;;
8909;SDS011;4490;49.072;8.804;2022-08-19T11:41:29;7.30;;;6.57;;
8909;SDS011;4490;49.072;8.804;2022-08-19T11:43:55;7.68;;;7.03;;
8909;SDS011;4490;49.072;8.804;2022-08-19T11:46:21;9.40;;;6.53;;
8909;SDS011;4490;49.072;8.804;2022-08-19T11:48:49;6.90;;;6.28;;
8909;SDS011;4490;49.072;8.804;2022-08-19T11:51:16;8.43;;;6.10;;
8909;SDS011;4490;49.072;8.804;2022-08-19T11:53:44;6.53;;;5.80;;
8909;SDS011;4490;49.072;8.804;2022-08-19T11:56:11;5.82;;;5.32;;
8909;SDS011;4490;49.072;8.804;2022-08-19T11:58:37;5.90;;;5.43;;
8909;SDS011;4490;49.072;8.804;2022-08-19T12:01:09;6.18;;;5.57;;
8909;SDS011;4490;49.072;8.804;2022-08-19T12:03:37;8.48;;;5.80;;
8909;SDS011;4490;49.072;8.804;2022-08-19T12:06:07;5.80;;;5.30;;
8909;SDS011;4490;49.072;8.804;2022-08-19T12:08:34;6.68;;;5.68;;
8909;SDS011;4490;49.072;8.804;2022-08-19T12:11:00;5.72;;;5.22;;
8909;SDS011;4490;49.072;8.804;2022-08-19T12:13:27;5.95;;;5.50;;
8909;SDS011;4490;49.072;8.804;2022-08-19T12:15:53;6.75;;;6.00;;
8909;SDS011;4490;49.072;8.804;2022-08-19T12:18:19;6.25;;;5.65;;
8909;SDS011;4490;49.072;8.804;2022-08-19T12:20:45;7.20;;;6.30;;
8909;SDS011;4490;49.072;8.804;2022-08-19T12:23:12;7.47;;;6.88;;
8909;SDS011;4490;49.072;8.804;2022-08-19T12:25:43;8.43;;;6.30;;
8909;SDS011;4490;49.072;8.804;2022-08-19T12:28:17;7.93;;;7.18;;
8909;SDS011;4490;49.072;8.804;2022-08-19T12:30:47;7.32;;;6.72;;
8909;SDS011;4490;49.072;8.804;2022-08-19T12:33:15;7.88;;;6.82;;
8909;SDS011;4490;49.072;8.804;2022-08-19T12:35:41;7.38;;;6.75;;
8909;SDS011;4490;49.072;8.804;2022-08-19T12:38:09;6.72;;;6.13;;
8909;SDS011;4490;49.072;8.804;2022-08-19T12:40:35;6.57;;;5.95;;
8909;SDS011;4490;49.072;8.804;2022-08-19T12:43:01;7.22;;;6.53;;
8909;SDS011;4490;49.072;8.804;2022-08-19T12:45:27;7.22;;;6.32;;
8909;SDS011;4490;49.072;8.804;2022-08-19T12:47:53;7.38;;;6.68;;
8909;SDS011;4490;49.072;8.804;2022-08-19T12:50:19;7.30;;;6.60;;
8909;SDS011;4490;49.072;8.804;2022-08-19T12:52:46;7.45;;;6.85;;
8909;SDS011;4490;49.072;8.804;2022-08-19T12:55:12;7.13;;;6.43;;
8909;SDS011;4490;49.072;8.804;2022-08-19T12:57:38;7.75;;;6.97;;
8909;SDS011;4490;49.072;8.804;2022-08-19T13:00:05;6.72;;;6.00;;
8909;SDS011;4490;49.072;8.804;2022-08-19T13:02:37;6.32;;;5.78;;
8909;SDS011;4490;49.072;8.804;2022-08-19T13:05:07;6.65;;;6.03;;
8909;SDS011;4490;49.072;8.804;2022-08-19T13:07:36;7.40;;;6.18;;
8909;SDS011;4490;49.072;8.804;2022-08-19T13:10:07;7.35;;;6.63;;
8909;SDS011;4490;49.072;8.804;2022-08-19T13:12:34;6.47;;;5.97;;
8909;SDS011;4490;49.072;8.804;2022-08-19T13:15:00;6.60;;;6.00;;
8909;SDS011;4490;49.072;8.804;2022-08-19T13:17:26;5.90;;;5.40;;
8909;SDS011;4490;49.072;8.804;2022-08-19T13:19:52;6.25;;;5.60;;
8909;SDS011;4490;49.072;8.804;2022-08-19T13:22:18;6.10;;;5.60;;
8909;SDS011;4490;49.072;8.804;2022-08-19T13:24:43;5.22;;;4.82;;
8909;SDS011;4490;49.072;8.804;2022-08-19T13:27:09;5.40;;;4.85;;
8909;SDS011;4490;49.072;8.804;2022-08-19T13:29:35;6.15;;;5.50;;
8909;SDS011;4490;49.072;8.804;2022-08-19T13:32:19;6.60;;;6.07;;
8909;SDS011;4490;49.072;8.804;2022-08-19T13:35:03;7.28;;;5.60;;
8909;SDS011;4490;49.072;8.804;2022-08-19T13:37:29;6.22;;;5.72;;
8909;SDS011;4490;49.072;8.804;2022-08-19T13:40:08;6.07;;;5.57;;
8909;SDS011;4490;49.072;8.804;2022-08-19T13:42:40;5.93;;;5.43;;
8909;SDS011;4490;49.072;8.804;2022-08-19T13:45:07;6.80;;;5.40;;
8909;SDS011;4490;49.072;8.804;2022-08-19T13:47:34;6.30;;;5.75;;
8909;SDS011;4490;49.072;8.804;2022-08-19T13:50:02;6.30;;;5.80;;
8909;SDS011;4490;49.072;8.804;2022-08-19T13:52:28;6.47;;;5.60;;
8909;SDS011;4490;49.072;8.804;2022-08-19T13:54:54;5.75;;;5.25;;
8909;SDS011;4490;49.072;8.804;2022-08-19T13:57:19;5.93;;;5.32;;
8909;SDS011;4490;49.072;8.804;2022-08-19T13:59:45;6.38;;;5.78;;
8909;SDS011;4490;49.072;8.804;2022-08-19T14:02:11;5.32;;;4.82;;
8909;SDS011;4490;49.072;8.804;2022-08-19T14:04:36;5.45;;;4.95;;
8909;SDS011;4490;49.072;8.804;2022-08-19T14:07:02;5.28;;;4.88;;
8909;SDS011;4490;49.072;8.804;2022-08-19T14:09:28;5.10;;;4.70;;
8909;SDS011;4490;49.072;8.804;2022-08-19T14:11:54;4.85;;;4.43;;
8909;SDS011;4490;49.072;8.804;2022-08-19T14:14:20;4.80;;;4.40;;
8909;SDS011;4490;49.072;8.804;2022-08-19T14:16:46;4.90;;;4.60;;
8909;SDS011;4490;49.072;8.804;2022-08-19T14:19:13;5.05;;;4.65;;
8909;SDS011;4490;49.072;8.804;2022-08-19T14:21:38;6.57;;;4.70;;
8909;SDS011;4490;49.072;8.804;2022-08-19T14:24:06;5.13;;;4.65;;
8909;SDS011;4490;49.072;8.804;2022-08-19T14:26:32;4.82;;;4.38;;
8909;SDS011;4490;49.072;8.804;2022-08-19T14:28:58;4.95;;;4.55;;
8909;SDS011;4490;49.072;8.804;2022-08-19T14:31:23;4.53;;;4.13;;
8909;SDS011;4490;49.072;8.804;2022-08-19T14:33:50;4.85;;;4.35;;
8909;SDS011;4490;49.072;8.804;2022-08-19T14:36:16;4.45;;;4.15;;
8909;SDS011;4490;49.072;8.804;2022-08-19T14:38:42;4.18;;;3.88;;
8909;SDS011;4490;49.072;8.804;2022-08-19T14:41:13;4.40;;;4.07;;
8909;SDS011;4490;49.072;8.804;2022-08-19T14:43:44;5.15;;;4.68;;
8909;SDS011;4490;49.072;8.804;2022-08-19T14:46:15;5.43;;;4.07;;
8909;SDS011;4490;49.072;8.804;2022-08-19T14:48:44;4.50;;;4.10;;
8909;SDS011;4490;49.072;8.804;2022-08-19T14:51:09;4.50;;;4.10;;
8909;SDS011;4490;49.072;8.804;2022-08-19T14:53:35;5.60;;;4.10;;
8909;SDS011;4490;49.072;8.804;2022-08-19T14:56:06;4.35;;;4.00;;
8909;SDS011;4490;49.072;8.804;2022-08-19T14:58:33;4.45;;;4.13;;
8909;SDS011;4490;49.072;8.804;2022-08-19T15:01:00;4.78;;;4.38;;
8909;SDS011;4490;49.072;8.804;2022-08-19T15:03:26;4.57;;;4.28;;
8909;SDS011;4490;49.072;8.804;2022-08-19T15:05:52;4.80;;;4.40;;
8909;SDS011;4490;49.072;8.804;2022-08-19T15:08:18;4.50;;;4.18;;
8909;SDS011;4490;49.072;8.804;2022-08-19T15:10:44;6.50;;;4.47;;
8909;SDS011;4490;49.072;8.804;2022-08-19T15:13:10;5.03;;;4.63;;
8909;SDS011;4490;49.072;8.804;2022-08-19T15:15:36;5.55;;;4.20;;